TERMINUS DAM (TRM)

Elevation: 752' · KAWEAH R basin · Operator: US Army Corps of Engineers

Provisional data, subject to change.
Query executed Monday at 10:43:30   clock

Select a sensor type for a plot of data.
Note: Reservoir Flows are daily averages.

Earlier

Date RES ELE    STORAGE    RES CHG    TOC STO    ABV TOC    OUTFLOW    INFLOW    FNF    PPT INC    TEMP MN    TEMP MX    WINDLEN    EVP PAN   
 FEET   AF   AF   AF   AF   CFS   CFS   CFS   INCHES   DEG F   DEG F   MILES   INCHES  
06/07/2015 650.73 71246 -56 185300 -114054 204 192 192 0.00 20 38 121 0.39
06/08/2015 650.36 70736 -510 185300 -114564 403 162 162 0.00 23 42 110 0.40
06/09/2015 649.67 69788 -948 185300 -115512 619 150 150 0.00 24 34 88 0.22
06/10/2015 648.87 68698 -1090 185300 -116602 684 149 149 0.00 22 34 139 0.34
06/11/2015 648.31 67940 -758 185300 -117360 722 354 347 0.00 20 35 119 0.35
06/12/2015 647.54 66905 -1035 185300 -118395 729 224 224 0.00 25 41 135 0.40
06/13/2015 646.89 66038 -867 185300 -119262 711 290 290 0.00 25 40 129 0.40
06/14/2015 646.38 65362 -676 185300 -119938 696 371 371 0.00 21 40 98 0.37
06/15/2015 645.68 64439 -923 185300 -120861 679 228 228 0.00 20 38 93 0.36
06/16/2015 644.89 63407 -1032 185300 -121893 674 168 168 0.00 17 38 91 0.35
06/17/2015 644.05 62318 -1089 185300 -122982 681 146 146 0.00 22 39 102 0.38
06/18/2015 643.18 61201 -1117 185300 -124099 673 125 125 0.00 23 40 104 0.39
06/19/2015 642.31 60095 -1106 185300 -125205 653 109 109 0.00 17 37 89 0.35
06/20/2015 641.42 58975 -1120 185300 -126325 645 94 94 0.00 21 39 101 0.38
06/21/2015 640.51 57842 -1133 185300 -- 646 89 89 0.00 23 38 102 0.37
06/22/2015 639.59 56708 -1134 185300 -128592 635 76 76 0.00 15 36 83 0.34
06/23/2015 638.65 55562 -1146 185300 -129738 629 64 64 0.00 20 37 96 0.35
06/24/2015 637.87 54620 -942 185300 -130680 596 135 66 e 0.00 21 38 104 0.37
06/25/2015 636.89 53450 -1170 185300 -131850 573 -3 66 e 0.00 24 40 100 0.38
06/26/2015 636.03 52435 -1015 185300 -- 573 73 73 0.00 23 41 90 0.34
06/27/2015 635.05 51292 -1143 185300 -- 579 14 45 e 0.00 23 38 77 0.31
06/28/2015 634.17 50277 -1015 185300 -- 579 76 45 e 0.00 23 36 78 0.25
06/29/2015 633.23 49206 -1071 185300 -136094 586 54 54 0.00 23 37 74 0.25
06/30/2015 632.35 48215 -991 185300 -137085 554 67 67 0.00 26 42 97 0.35
07/01/2015 631.50 47269 -946 185300 -138031 507 38 38 0.00 28 38 98 0.23
07/02/2015 630.78 46476 -793 185300 -138824 468 77 77 0.00 25 37 117 0.24
07/03/2015 630.54 46213 -263 185300 -139087 473 353 353 0.00 25 40 96 0.36
07/04/2015 629.96 45582 -631 185300 -139718 410 104 104 0.00 23 40 89 0.36
07/05/2015 629.33 44902 -680 185300 -140398 451 121 121 0.00 24 37 91 0.35
07/06/2015 -- -- -- -- -- -- -- -- -- -- -- -- --

Later | Latest

Warning! This data is preliminary and subject to revision.

Show TRM Map | Plot TRM Data | 1 Month TRM Data | Real-Time TRM Data | TRM Info